createdAt,value
2023-03-19T00:00:32.029Z,97604.01
2023-03-19T00:03:20.778Z,97597.09
2023-03-19T00:05:53.284Z,97599.48
2023-03-19T00:08:21.675Z,97594.38
2023-03-19T00:10:49.998Z,97593.95
2023-03-19T00:13:18.540Z,97589.83
2023-03-19T00:15:47.457Z,97592.34
2023-03-19T00:18:16.065Z,97589.86
2023-03-19T00:20:44.035Z,97590.85
2023-03-19T00:23:12.476Z,97595.11
2023-03-19T00:25:42.211Z,97594.54
2023-03-19T00:28:10.324Z,97590.55
2023-03-19T00:30:38.516Z,97593.05
2023-03-19T00:33:07.080Z,97595.36
2023-03-19T00:35:35.294Z,97597.83
2023-03-19T00:38:04.868Z,97593.14
2023-03-19T00:40:34.048Z,97586.18
2023-03-19T00:43:01.973Z,97586.55
2023-03-19T00:45:30.988Z,97586.60
2023-03-19T00:47:59.225Z,97582.14
2023-03-19T00:50:27.262Z,97582.38
2023-03-19T00:52:55.329Z,97578.86
2023-03-19T00:55:24.541Z,97578.09
2023-03-19T00:57:52.678Z,97577.52
2023-03-19T01:00:21.328Z,97576.20
2023-03-19T01:02:49.448Z,97577.31
2023-03-19T01:05:17.558Z,97572.98
2023-03-19T01:07:45.603Z,97573.36
2023-03-19T01:10:13.631Z,97576.86
2023-03-19T01:12:41.974Z,97579.48
2023-03-19T01:15:10.416Z,97583.64
2023-03-19T01:17:38.753Z,97582.88
2023-03-19T01:20:12.924Z,97586.96
2023-03-19T01:22:42.645Z,97583.79
2023-03-19T01:25:12.641Z,97583.65
2023-03-19T01:27:44.646Z,97578.80
2023-03-19T01:30:14.712Z,97576.55
2023-03-19T01:33:15.246Z,97573.91
2023-03-19T01:36:04.954Z,97574.13
2023-03-19T01:38:59.132Z,97572.50
2023-03-19T01:41:27.345Z,97578.66
2023-03-19T01:43:59.527Z,97581.80
2023-03-19T01:46:41.357Z,97583.54
2023-03-19T01:49:29.352Z,97584.53
2023-03-19T01:52:19.624Z,97582.30
2023-03-19T01:55:09.112Z,97579.42
2023-03-19T01:58:08.286Z,97586.44
2023-03-19T02:00:59.146Z,97583.59
2023-03-19T02:03:27.749Z,97584.87
2023-03-19T02:06:25.300Z,97579.55
2023-03-19T02:08:54.813Z,97579.09
2023-03-19T02:11:23.374Z,97578.29
2023-03-19T02:13:51.986Z,97575.47
2023-03-19T02:16:20.058Z,97577.04
2023-03-19T02:18:48.783Z,97572.63
2023-03-19T02:21:18.643Z,97578.63
2023-03-19T02:23:53.685Z,97579.39
2023-03-19T02:26:28.860Z,97586.84
2023-03-19T02:29:00.120Z,97589.13
2023-03-19T02:31:32.041Z,97586.77
2023-03-19T02:34:01.791Z,97585.84
2023-03-19T02:36:37.330Z,97585.56
2023-03-19T02:39:07.357Z,97584.44
2023-03-19T02:41:37.779Z,97584.31
2023-03-19T02:44:06.676Z,97583.99
2023-03-19T02:46:34.826Z,97583.48
2023-03-19T02:49:02.880Z,97583.15
2023-03-19T02:51:30.956Z,97584.08
2023-03-19T02:54:00.981Z,97585.33
2023-03-19T02:56:29.278Z,97582.94
2023-03-19T02:58:57.251Z,97588.27
2023-03-19T03:01:26.005Z,97586.10
2023-03-19T03:03:54.412Z,97587.33
2023-03-19T03:06:26.648Z,97590.08
2023-03-19T03:08:54.754Z,97594.39
2023-03-19T03:11:24.031Z,97597.17
2023-03-19T03:13:52.102Z,97599.11
2023-03-19T03:16:20.080Z,97601.02
2023-03-19T03:18:48.113Z,97604.69
2023-03-19T03:21:20.141Z,97607.81
2023-03-19T03:23:48.657Z,97610.95
2023-03-19T03:26:17.365Z,97615.27
2023-03-19T03:28:45.829Z,97615.13
2023-03-19T03:31:14.705Z,97618.08
2023-03-19T03:33:42.748Z,97611.83
2023-03-19T03:36:10.703Z,97613.38
2023-03-19T03:38:38.795Z,97612.39
2023-03-19T03:41:06.693Z,97614.48
2023-03-19T03:43:35.588Z,97614.37
2023-03-19T03:46:04.153Z,97611.48
2023-03-19T03:48:33.013Z,97613.37
2023-03-19T03:51:01.216Z,97614.91
2023-03-19T03:53:29.396Z,97612.34
2023-03-19T03:55:57.725Z,97612.20
2023-03-19T03:58:26.804Z,97615.48
2023-03-19T04:00:55.252Z,97614.86
2023-03-19T04:03:24.731Z,97612.40
2023-03-19T04:05:54.658Z,97617.02
2023-03-19T04:08:23.517Z,97614.14
2023-03-19T04:10:51.986Z,97609.55
2023-03-19T04:13:20.415Z,97611.27
2023-03-19T04:15:48.874Z,97613.31
2023-03-19T04:18:17.994Z,97612.61
2023-03-19T04:20:47.857Z,97613.43
2023-03-19T04:23:16.956Z,97612.42
2023-03-19T04:25:45.409Z,97610.38
2023-03-19T04:28:13.410Z,97608.39
2023-03-19T04:30:43.600Z,97613.52
2023-03-19T04:33:13.267Z,97613.02
2023-03-19T04:35:41.652Z,97611.20
2023-03-19T04:38:10.026Z,97610.87
2023-03-19T04:40:38.443Z,97611.74
2023-03-19T04:43:07.520Z,97609.71
2023-03-19T04:45:36.782Z,97606.48
2023-03-19T04:48:06.318Z,97601.63
2023-03-19T04:50:35.600Z,97606.88
2023-03-19T04:53:04.262Z,97607.05
2023-03-19T04:55:32.631Z,97609.63
2023-03-19T04:58:06.975Z,97608.81
2023-03-19T05:00:37.056Z,97609.67
2023-03-19T05:03:06.430Z,97605.77
2023-03-19T05:05:35.154Z,97612.88
2023-03-19T05:08:07.574Z,97614.25
2023-03-19T05:10:36.773Z,97617.15
2023-03-19T05:13:05.972Z,97615.63
2023-03-19T05:15:34.749Z,97619.39
2023-03-19T05:18:08.807Z,97619.05
2023-03-19T05:20:42.814Z,97616.66
2023-03-19T05:23:18.100Z,97614.60
2023-03-19T05:26:06.869Z,97619.70
2023-03-19T05:28:53.640Z,97616.66
2023-03-19T05:31:27.051Z,97612.73
2023-03-19T05:33:56.215Z,97609.63
2023-03-19T05:36:24.407Z,97608.78
2023-03-19T05:39:14.326Z,97611.63
2023-03-19T05:41:43.832Z,97613.80
2023-03-19T05:44:16.785Z,97617.71
2023-03-19T05:47:05.376Z,97619.86
2023-03-19T05:49:35.999Z,97614.20
2023-03-19T05:52:05.460Z,97613.80
2023-03-19T05:54:33.438Z,97615.91
2023-03-19T05:57:09.231Z,97619.77
2023-03-19T05:59:48.234Z,97611.48
2023-03-19T06:02:43.163Z,97614.61
2023-03-19T06:05:36.668Z,97614.89
2023-03-19T06:08:23.626Z,97615.02
2023-03-19T06:11:00.320Z,97614.44
2023-03-19T06:13:37.521Z,97615.05
2023-03-19T06:16:09.476Z,97610.39
2023-03-19T06:18:47.260Z,97610.47
2023-03-19T06:21:16.590Z,97605.42
2023-03-19T06:23:45.350Z,97607.71
2023-03-19T06:26:15.842Z,97610.52
2023-03-19T06:28:48.661Z,97609.54
2023-03-19T06:31:17.745Z,97608.90
2023-03-19T06:33:58.408Z,97606.89
2023-03-19T06:36:32.032Z,97610.53
2023-03-19T06:39:00.294Z,97608.73
2023-03-19T06:41:28.167Z,97609.95
2023-03-19T06:44:06.122Z,97612.18
2023-03-19T06:46:34.136Z,97612.91
2023-03-19T06:49:02.104Z,97613.76
2023-03-19T06:51:30.145Z,97610.95
2023-03-19T06:53:59.817Z,97612.14
2023-03-19T06:56:28.019Z,97610.61
2023-03-19T06:58:56.665Z,97612.66
2023-03-19T07:01:24.678Z,97610.98
2023-03-19T07:03:52.733Z,97601.25
2023-03-19T07:06:22.170Z,97597.02
2023-03-19T07:08:50.440Z,97605.20
2023-03-19T07:11:18.541Z,97600.63
2023-03-19T07:13:46.694Z,97595.55
2023-03-19T07:16:14.737Z,97593.55
2023-03-19T07:18:43.245Z,97594.44
2023-03-19T07:21:11.788Z,97592.95
2023-03-19T07:23:41.541Z,97589.41
2023-03-19T07:26:09.583Z,97591.81
2023-03-19T07:28:38.055Z,97595.58
2023-03-19T07:31:07.148Z,97594.06
2023-03-19T07:33:36.198Z,97589.64
2023-03-19T07:36:04.513Z,97586.58
2023-03-19T07:38:32.474Z,97587.42
2023-03-19T07:41:02.741Z,97581.08
2023-03-19T07:43:31.439Z,97580.39
2023-03-19T07:45:59.997Z,97578.30
2023-03-19T07:48:28.211Z,97577.88
2023-03-19T07:50:56.240Z,97571.27
2023-03-19T07:53:24.328Z,97577.60
2023-03-19T07:55:52.266Z,97582.23
2023-03-19T07:58:20.369Z,97579.35
2023-03-19T08:00:48.920Z,97580.55
2023-03-19T08:03:18.021Z,97580.89
2023-03-19T08:05:48.487Z,97580.73
2023-03-19T08:08:17.781Z,97578.36
2023-03-19T08:10:45.806Z,97577.29
2023-03-19T08:13:14.324Z,97575.39
2023-03-19T08:15:42.589Z,97578.98
2023-03-19T08:18:11.136Z,97576.90
2023-03-19T08:20:39.087Z,97576.70
2023-03-19T08:23:08.105Z,97573.39
2023-03-19T08:25:36.317Z,97570.45
2023-03-19T08:28:04.452Z,97575.00
2023-03-19T08:30:32.926Z,97577.02
2023-03-19T08:33:01.743Z,97576.80
2023-03-19T08:35:29.934Z,97572.42
2023-03-19T08:37:57.878Z,97571.34
2023-03-19T08:40:26.166Z,97570.77
2023-03-19T08:42:54.666Z,97565.75
2023-03-19T08:45:23.682Z,97559.29
2023-03-19T08:47:51.723Z,97556.25
2023-03-19T08:50:19.902Z,97554.52
2023-03-19T08:52:48.283Z,97555.55
2023-03-19T08:55:17.188Z,97554.76
2023-03-19T08:57:45.236Z,97551.92
2023-03-19T09:00:13.865Z,97551.33
2023-03-19T09:02:41.764Z,97550.77
2023-03-19T09:05:10.102Z,97554.75
2023-03-19T09:07:38.002Z,97552.56
2023-03-19T09:10:07.268Z,97547.97
2023-03-19T09:12:36.180Z,97549.33
2023-03-19T09:15:04.681Z,97544.13
2023-03-19T09:17:32.553Z,97540.52
2023-03-19T09:20:00.476Z,97541.58
2023-03-19T09:22:28.418Z,97542.49
2023-03-19T09:24:56.428Z,97541.72
2023-03-19T09:27:24.507Z,97540.75
2023-03-19T09:29:52.435Z,97534.11
2023-03-19T09:32:21.114Z,97535.38
2023-03-19T09:34:49.781Z,97534.23
2023-03-19T09:37:18.556Z,97534.83
2023-03-19T09:39:47.172Z,97530.61
2023-03-19T09:42:21.176Z,97527.60
2023-03-19T09:44:52.395Z,97521.84
2023-03-19T09:47:32.401Z,97516.71
2023-03-19T09:50:06.898Z,97517.73
2023-03-19T09:52:34.753Z,97513.77
2023-03-19T09:55:12.659Z,97516.20
2023-03-19T09:57:40.572Z,97506.77
2023-03-19T10:00:23.476Z,97507.92
2023-03-19T10:02:57.254Z,97506.34
2023-03-19T10:05:45.434Z,97505.13
2023-03-19T10:08:19.464Z,97504.95
2023-03-19T10:10:56.681Z,97509.39
2023-03-19T10:13:39.800Z,97506.66
2023-03-19T10:16:14.343Z,97508.05
2023-03-19T10:18:45.983Z,97510.73
2023-03-19T10:21:24.311Z,97507.66
2023-03-19T10:24:02.101Z,97504.52
2023-03-19T10:26:31.575Z,97501.98
2023-03-19T10:29:02.364Z,97499.90
2023-03-19T10:31:37.998Z,97491.42
2023-03-19T10:34:06.194Z,97485.73
2023-03-19T10:36:35.717Z,97483.30
2023-03-19T10:39:06.952Z,97478.16
2023-03-19T10:42:01.172Z,97479.55
2023-03-19T10:44:34.608Z,97471.88
2023-03-19T10:47:11.280Z,97467.85
2023-03-19T10:49:39.419Z,97459.79
2023-03-19T10:52:16.766Z,97454.79
2023-03-19T10:54:46.168Z,97450.98
2023-03-19T10:57:26.240Z,97446.98
2023-03-19T10:59:54.412Z,97447.08
2023-03-19T11:02:23.985Z,97445.49
2023-03-19T11:05:08.232Z,97441.90
2023-03-19T11:07:37.239Z,97441.00
2023-03-19T11:10:05.984Z,97441.13
2023-03-19T11:12:34.918Z,97439.13
2023-03-19T11:15:05.867Z,97439.80
2023-03-19T11:17:48.073Z,97436.20
2023-03-19T11:20:15.989Z,97431.64
2023-03-19T11:22:44.386Z,97425.86
2023-03-19T11:25:23.638Z,97423.41
2023-03-19T11:27:58.173Z,97421.77
2023-03-19T11:30:28.251Z,97414.33
2023-03-19T11:32:56.894Z,97407.52
2023-03-19T11:35:39.025Z,97404.23
2023-03-19T11:38:11.156Z,97400.99
2023-03-19T11:40:53.168Z,97398.91
2023-03-19T11:43:28.815Z,97394.35
2023-03-19T11:46:02.778Z,97392.72
2023-03-19T11:48:34.051Z,97394.58
2023-03-19T11:51:22.968Z,97392.41
2023-03-19T11:54:04.404Z,97387.35
2023-03-19T11:56:40.767Z,97385.58
2023-03-19T11:59:11.587Z,97384.98
2023-03-19T12:01:43.652Z,97383.80
2023-03-19T12:04:14.758Z,97376.92
2023-03-19T12:06:48.854Z,97372.96
2023-03-19T12:09:29.804Z,97367.06
2023-03-19T12:12:07.628Z,97361.77
2023-03-19T12:14:35.902Z,97362.63
2023-03-19T12:17:13.275Z,97358.82
2023-03-19T12:19:41.499Z,97359.84
2023-03-19T12:22:10.033Z,97349.41
2023-03-19T12:24:38.066Z,97347.33
2023-03-19T12:27:19.178Z,97344.20
2023-03-19T12:29:55.441Z,97343.05
2023-03-19T12:32:26.493Z,97336.78
2023-03-19T12:35:30.044Z,97333.27
2023-03-19T12:38:07.650Z,97326.33
2023-03-19T12:40:51.686Z,97317.59
2023-03-19T12:43:30.929Z,97314.23
2023-03-19T12:46:14.018Z,97308.38
2023-03-19T12:48:57.587Z,97304.61
2023-03-19T12:51:27.675Z,97304.52
2023-03-19T12:53:59.404Z,97308.55
2023-03-19T12:56:32.925Z,97305.66
2023-03-19T12:59:20.303Z,97304.33
2023-03-19T13:01:50.726Z,97302.60
2023-03-19T13:04:30.060Z,97299.56
2023-03-19T13:06:58.545Z,97301.98
2023-03-19T13:09:56.531Z,97299.77
2023-03-19T13:12:27.742Z,97295.29
2023-03-19T13:15:03.179Z,97290.88
2023-03-19T13:17:52.567Z,97291.25
2023-03-19T13:20:39.498Z,97282.05
2023-03-19T13:23:08.740Z,97279.12
2023-03-19T13:25:44.960Z,97277.25
2023-03-19T13:28:18.916Z,97271.26
2023-03-19T13:31:19.568Z,97268.70
2023-03-19T13:34:01.947Z,97263.70
2023-03-19T13:36:31.185Z,97261.09
2023-03-19T13:39:00.797Z,97257.52
2023-03-19T13:41:42.606Z,97252.55
2023-03-19T13:44:22.708Z,97247.06
2023-03-19T13:46:51.540Z,97245.02
2023-03-19T13:49:19.664Z,97236.29
2023-03-19T13:51:48.091Z,97232.39
2023-03-19T13:54:17.922Z,97229.08
2023-03-19T13:57:06.968Z,97224.38
2023-03-19T13:59:36.311Z,97224.65
2023-03-19T14:02:22.533Z,97219.40
2023-03-19T14:05:00.208Z,97219.00
2023-03-19T14:07:30.970Z,97213.55
2023-03-19T14:10:00.642Z,97212.12
2023-03-19T14:12:47.846Z,97206.71
2023-03-19T14:15:21.600Z,97204.60
2023-03-19T14:17:53.808Z,97205.90
2023-03-19T14:20:37.352Z,97205.86
2023-03-19T14:23:08.976Z,97205.06
2023-03-19T14:25:57.338Z,97198.42
2023-03-19T14:28:58.182Z,97199.75
2023-03-19T14:31:30.606Z,97197.04
2023-03-19T14:34:18.686Z,97194.52
2023-03-19T14:36:56.930Z,97195.52
2023-03-19T14:39:27.819Z,97190.16
2023-03-19T14:42:18.881Z,97191.17
2023-03-19T14:45:06.083Z,97189.46
2023-03-19T14:48:04.126Z,97190.85
2023-03-19T14:50:51.454Z,97191.15
2023-03-19T14:53:23.962Z,97188.70
2023-03-19T14:55:53.062Z,97185.25
2023-03-19T14:58:22.129Z,97182.83
2023-03-19T15:00:52.093Z,97180.86
2023-03-19T15:03:39.411Z,97183.17
2023-03-19T15:06:12.082Z,97185.73
2023-03-19T15:08:40.987Z,97187.17
2023-03-19T15:11:16.189Z,97184.39
2023-03-19T15:14:03.572Z,97189.20
2023-03-19T15:16:37.765Z,97187.95
2023-03-19T15:19:10.491Z,97187.70
2023-03-19T15:21:40.113Z,97190.32
2023-03-19T15:24:14.902Z,97192.28
2023-03-19T15:26:44.335Z,97194.39
2023-03-19T15:29:13.733Z,97195.64
2023-03-19T15:31:51.059Z,97194.33
2023-03-19T15:34:23.293Z,97193.88
2023-03-19T15:36:57.343Z,97197.23
2023-03-19T15:39:27.337Z,97196.26
2023-03-19T15:41:56.076Z,97201.94
2023-03-19T15:44:31.697Z,97201.20
2023-03-19T15:47:02.409Z,97206.52
2023-03-19T15:49:35.552Z,97207.66
2023-03-19T15:52:05.656Z,97210.52
2023-03-19T15:54:34.128Z,97210.73
2023-03-19T15:57:02.205Z,97207.84
2023-03-19T15:59:31.788Z,97202.45
2023-03-19T16:02:00.874Z,97203.96
2023-03-19T16:04:30.119Z,97205.16
2023-03-19T16:06:59.106Z,97211.25
2023-03-19T16:09:27.216Z,97212.55
2023-03-19T16:11:56.205Z,97218.29
2023-03-19T16:14:26.742Z,97215.52
2023-03-19T16:17:11.008Z,97217.13
2023-03-19T16:19:48.068Z,97224.02
2023-03-19T16:22:17.355Z,97230.17
2023-03-19T16:24:46.697Z,97232.78
2023-03-19T16:27:34.886Z,97234.59
2023-03-19T16:30:04.111Z,97234.38
2023-03-19T16:32:32.621Z,97234.63
2023-03-19T16:35:03.933Z,97237.09
2023-03-19T16:37:38.008Z,97240.30
2023-03-19T16:40:12.322Z,97241.17
2023-03-19T16:42:41.338Z,97244.69
2023-03-19T16:45:16.300Z,97251.89
2023-03-19T16:47:51.435Z,97262.02
2023-03-19T16:50:20.944Z,97264.63
2023-03-19T16:52:49.490Z,97266.10
2023-03-19T16:55:25.713Z,97269.27
2023-03-19T16:57:58.940Z,97268.78
2023-03-19T17:00:28.293Z,97266.92
2023-03-19T17:02:57.954Z,97267.98
2023-03-19T17:05:26.732Z,97270.65
2023-03-19T17:07:57.799Z,97275.08
2023-03-19T17:10:27.604Z,97273.15
2023-03-19T17:12:56.130Z,97276.63
2023-03-19T17:15:24.017Z,97278.66
2023-03-19T17:17:52.142Z,97282.20
2023-03-19T17:20:28.171Z,97282.37
2023-03-19T17:22:56.307Z,97282.27
2023-03-19T17:25:24.717Z,97280.70
2023-03-19T17:27:52.663Z,97281.91
2023-03-19T17:30:20.837Z,97286.16
2023-03-19T17:32:49.857Z,97285.35
2023-03-19T17:35:19.351Z,97286.05
2023-03-19T17:37:47.810Z,97289.02
2023-03-19T17:40:27.415Z,97284.23
2023-03-19T17:42:56.229Z,97283.51
2023-03-19T17:45:29.702Z,97284.60
2023-03-19T17:47:58.578Z,97282.55
2023-03-19T17:50:27.446Z,97285.63
2023-03-19T17:52:55.579Z,97290.03
2023-03-19T17:55:25.356Z,97293.77
2023-03-19T17:57:53.331Z,97292.92
2023-03-19T18:00:22.662Z,97291.40
2023-03-19T18:02:51.948Z,97289.90
2023-03-19T18:05:21.457Z,97293.13
2023-03-19T18:07:50.659Z,97295.15
2023-03-19T18:10:20.286Z,97296.82
2023-03-19T18:12:49.468Z,97294.22
2023-03-19T18:15:17.444Z,97296.20
2023-03-19T18:17:47.949Z,97292.54
2023-03-19T18:20:17.542Z,97284.94
2023-03-19T18:22:45.599Z,97290.13
2023-03-19T18:25:18.107Z,97290.13
2023-03-19T18:27:46.271Z,97286.86
2023-03-19T18:30:16.134Z,97284.33
2023-03-19T18:32:47.411Z,97280.57
2023-03-19T18:35:26.825Z,97284.54
2023-03-19T18:37:55.298Z,97290.46
2023-03-19T18:40:24.792Z,97288.23
2023-03-19T18:42:52.981Z,97298.76
2023-03-19T18:45:21.134Z,97307.45
2023-03-19T18:47:50.907Z,97307.67
2023-03-19T18:50:20.312Z,97307.89
2023-03-19T18:52:49.715Z,97305.14
2023-03-19T18:55:18.822Z,97302.38
2023-03-19T18:57:53.428Z,97304.52
2023-03-19T19:00:24.418Z,97305.66
2023-03-19T19:02:53.556Z,97311.31
2023-03-19T19:05:23.939Z,97313.29
2023-03-19T19:07:52.023Z,97319.77
2023-03-19T19:10:20.456Z,97324.64
2023-03-19T19:12:52.307Z,97322.76
2023-03-19T19:15:23.263Z,97323.21
2023-03-19T19:17:51.827Z,97323.94
2023-03-19T19:20:22.137Z,97323.01
2023-03-19T19:22:53.614Z,97320.56
2023-03-19T19:25:22.729Z,97329.55
2023-03-19T19:27:56.374Z,97322.23
2023-03-19T19:30:24.367Z,97317.14
2023-03-19T19:32:52.347Z,97313.95
2023-03-19T19:35:23.000Z,97316.29
2023-03-19T19:37:53.430Z,97315.09
2023-03-19T19:40:26.742Z,97313.30
2023-03-19T19:42:55.228Z,97306.52
2023-03-19T19:45:26.365Z,97306.19
2023-03-19T19:47:56.495Z,97306.81
2023-03-19T19:50:27.661Z,97306.36
2023-03-19T19:52:56.353Z,97306.62
2023-03-19T19:55:25.960Z,97307.51
2023-03-19T19:57:55.349Z,97301.33
2023-03-19T20:00:23.401Z,97306.63
2023-03-19T20:02:51.217Z,97307.29
2023-03-19T20:05:21.848Z,97306.77
2023-03-19T20:07:50.982Z,97311.69
2023-03-19T20:10:20.101Z,97310.67
2023-03-19T20:12:51.434Z,97306.39
2023-03-19T20:15:21.776Z,97313.53
2023-03-19T20:17:51.916Z,97309.61
2023-03-19T20:20:19.872Z,97316.05
2023-03-19T20:22:49.838Z,97313.93
2023-03-19T20:25:19.353Z,97309.89
2023-03-19T20:27:49.182Z,97312.49
2023-03-19T20:30:26.419Z,97315.29
2023-03-19T20:32:54.976Z,97315.39
2023-03-19T20:35:26.211Z,97315.33
2023-03-19T20:37:56.171Z,97317.33
2023-03-19T20:40:27.040Z,97316.89
2023-03-19T20:42:55.616Z,97316.42
2023-03-19T20:45:24.736Z,97314.52
2023-03-19T20:47:52.998Z,97318.21
2023-03-19T20:50:31.468Z,97319.61
2023-03-19T20:53:03.966Z,97319.34
2023-03-19T20:55:36.479Z,97320.16
2023-03-19T20:58:12.531Z,97317.81
2023-03-19T21:00:41.198Z,97317.42
2023-03-19T21:03:11.417Z,97316.73
2023-03-19T21:05:39.537Z,97317.23
2023-03-19T21:08:13.414Z,97319.67
2023-03-19T21:10:43.251Z,97319.88
2023-03-19T21:13:15.815Z,97314.23
2023-03-19T21:15:44.957Z,97307.48
2023-03-19T21:18:13.327Z,97306.05
2023-03-19T21:20:42.959Z,97310.48
2023-03-19T21:23:17.084Z,97310.56
2023-03-19T21:25:45.833Z,97307.67
2023-03-19T21:28:25.787Z,97308.14
2023-03-19T21:30:53.732Z,97315.02
2023-03-19T21:33:29.241Z,97318.52
2023-03-19T21:35:57.897Z,97317.92
2023-03-19T21:38:26.329Z,97315.21
2023-03-19T21:40:56.152Z,97316.28
2023-03-19T21:43:29.965Z,97319.16
2023-03-19T21:45:58.984Z,97320.95
2023-03-19T21:48:31.289Z,97320.06
2023-03-19T21:51:00.437Z,97320.34
2023-03-19T21:53:28.852Z,97318.91
2023-03-19T21:55:58.530Z,97317.27
2023-03-19T21:58:33.727Z,97319.32
2023-03-19T22:01:02.336Z,97314.98
2023-03-19T22:03:31.657Z,97313.97
2023-03-19T22:05:59.800Z,97310.88
2023-03-19T22:08:28.048Z,97315.66
2023-03-19T22:10:57.147Z,97315.20
2023-03-19T22:13:28.074Z,97315.34
2023-03-19T22:15:57.907Z,97308.51
2023-03-19T22:18:26.292Z,97310.54
2023-03-19T22:20:54.414Z,97312.04
2023-03-19T22:23:22.541Z,97306.95
2023-03-19T22:25:51.477Z,97310.23
2023-03-19T22:28:28.298Z,97312.80
2023-03-19T22:30:56.341Z,97307.90
2023-03-19T22:33:25.694Z,97303.18
2023-03-19T22:35:54.000Z,97307.21
2023-03-19T22:38:23.141Z,97306.67
2023-03-19T22:40:55.971Z,97297.84
2023-03-19T22:43:29.438Z,97300.88
2023-03-19T22:46:07.409Z,97301.27
2023-03-19T22:48:35.875Z,97302.84
2023-03-19T22:51:04.344Z,97302.59
2023-03-19T22:53:33.924Z,97299.83
2023-03-19T22:56:02.388Z,97296.57
2023-03-19T22:58:30.857Z,97303.06
2023-03-19T23:00:58.922Z,97304.73
2023-03-19T23:03:28.599Z,97303.82
2023-03-19T23:05:59.164Z,97305.81
2023-03-19T23:08:27.824Z,97304.52
2023-03-19T23:10:55.766Z,97304.79
2023-03-19T23:13:23.671Z,97305.66
2023-03-19T23:16:00.379Z,97297.10
2023-03-19T23:18:44.125Z,97299.86
2023-03-19T23:21:13.975Z,97300.20
2023-03-19T23:23:42.597Z,97300.85
2023-03-19T23:26:24.188Z,97300.91
2023-03-19T23:28:52.816Z,97300.04
2023-03-19T23:31:21.035Z,97303.08
2023-03-19T23:33:49.815Z,97305.73
2023-03-19T23:36:18.250Z,97301.26
2023-03-19T23:38:46.815Z,97304.57
2023-03-19T23:41:24.089Z,97302.29
2023-03-19T23:43:53.065Z,97298.96
2023-03-19T23:46:21.631Z,97297.66
2023-03-19T23:48:49.575Z,97294.52
2023-03-19T23:51:18.699Z,97294.93
2023-03-19T23:53:46.626Z,97292.22
2023-03-19T23:56:19.305Z,97294.09
2023-03-19T23:58:49.197Z,97293.58
